sensor_id;sensor_type;location;lat;lon;timestamp;P1;durP1;ratioP1;P2;durP2;ratioP2
38629;SDS011;24384;51.988;4.644;2023-02-28T00:01:25;6.15;;;2.42;;
38629;SDS011;24384;51.988;4.644;2023-02-28T00:03:50;4.68;;;2.28;;
38629;SDS011;24384;51.988;4.644;2023-02-28T00:06:16;6.63;;;2.10;;
38629;SDS011;24384;51.988;4.644;2023-02-28T00:08:42;7.13;;;2.58;;
38629;SDS011;24384;51.988;4.644;2023-02-28T00:11:11;5.63;;;2.15;;
38629;SDS011;24384;51.988;4.644;2023-02-28T00:13:39;6.20;;;2.38;;
38629;SDS011;24384;51.988;4.644;2023-02-28T00:16:08;9.60;;;2.13;;
38629;SDS011;24384;51.988;4.644;2023-02-28T00:18:35;7.22;;;2.17;;
38629;SDS011;24384;51.988;4.644;2023-02-28T00:21:00;6.20;;;2.47;;
38629;SDS011;24384;51.988;4.644;2023-02-28T00:23:26;6.25;;;1.95;;
38629;SDS011;24384;51.988;4.644;2023-02-28T00:25:52;4.05;;;1.98;;
38629;SDS011;24384;51.988;4.644;2023-02-28T00:28:17;6.55;;;1.92;;
38629;SDS011;24384;51.988;4.644;2023-02-28T00:30:43;3.10;;;1.67;;
38629;SDS011;24384;51.988;4.644;2023-02-28T00:33:08;7.93;;;2.00;;
38629;SDS011;24384;51.988;4.644;2023-02-28T00:35:34;4.28;;;2.30;;
38629;SDS011;24384;51.988;4.644;2023-02-28T00:37:59;11.10;;;2.30;;
38629;SDS011;24384;51.988;4.644;2023-02-28T00:40:24;5.35;;;2.40;;
38629;SDS011;24384;51.988;4.644;2023-02-28T00:42:49;5.70;;;2.70;;
38629;SDS011;24384;51.988;4.644;2023-02-28T00:45:15;3.85;;;1.80;;
38629;SDS011;24384;51.988;4.644;2023-02-28T00:47:40;7.72;;;3.15;;
38629;SDS011;24384;51.988;4.644;2023-02-28T00:50:05;6.18;;;2.42;;
38629;SDS011;24384;51.988;4.644;2023-02-28T00:52:31;5.90;;;1.75;;
38629;SDS011;24384;51.988;4.644;2023-02-28T00:54:56;5.53;;;2.17;;
38629;SDS011;24384;51.988;4.644;2023-02-28T00:57:22;8.20;;;2.22;;
38629;SDS011;24384;51.988;4.644;2023-02-28T00:59:48;5.75;;;2.00;;
38629;SDS011;24384;51.988;4.644;2023-02-28T01:02:13;4.72;;;1.90;;
38629;SDS011;24384;51.988;4.644;2023-02-28T01:04:38;5.75;;;1.80;;
38629;SDS011;24384;51.988;4.644;2023-02-28T01:07:04;5.32;;;2.28;;
38629;SDS011;24384;51.988;4.644;2023-02-28T01:09:29;4.85;;;1.98;;
38629;SDS011;24384;51.988;4.644;2023-02-28T01:11:55;8.05;;;2.35;;
38629;SDS011;24384;51.988;4.644;2023-02-28T01:14:20;7.10;;;1.90;;
38629;SDS011;24384;51.988;4.644;2023-02-28T01:16:45;4.85;;;1.80;;
38629;SDS011;24384;51.988;4.644;2023-02-28T01:19:11;7.53;;;3.92;;
38629;SDS011;24384;51.988;4.644;2023-02-28T01:21:36;9.10;;;2.45;;
38629;SDS011;24384;51.988;4.644;2023-02-28T01:24:02;6.20;;;2.25;;
38629;SDS011;24384;51.988;4.644;2023-02-28T01:26:28;3.83;;;2.05;;
38629;SDS011;24384;51.988;4.644;2023-02-28T01:28:54;5.07;;;2.03;;
38629;SDS011;24384;51.988;4.644;2023-02-28T01:31:20;7.07;;;2.40;;
38629;SDS011;24384;51.988;4.644;2023-02-28T01:33:46;7.38;;;1.90;;
38629;SDS011;24384;51.988;4.644;2023-02-28T01:36:13;4.00;;;1.80;;
38629;SDS011;24384;51.988;4.644;2023-02-28T01:38:40;4.93;;;2.20;;
38629;SDS011;24384;51.988;4.644;2023-02-28T01:41:06;5.90;;;2.08;;
38629;SDS011;24384;51.988;4.644;2023-02-28T01:43:52;4.43;;;2.40;;
38629;SDS011;24384;51.988;4.644;2023-02-28T01:46:22;5.50;;;2.20;;
38629;SDS011;24384;51.988;4.644;2023-02-28T01:48:53;6.85;;;2.45;;
38629;SDS011;24384;51.988;4.644;2023-02-28T01:51:35;3.35;;;1.90;;
38629;SDS011;24384;51.988;4.644;2023-02-28T01:54:09;8.73;;;2.10;;
38629;SDS011;24384;51.988;4.644;2023-02-28T01:56:38;7.43;;;2.22;;
38629;SDS011;24384;51.988;4.644;2023-02-28T01:59:13;9.98;;;2.53;;
38629;SDS011;24384;51.988;4.644;2023-02-28T02:01:42;6.80;;;2.72;;
38629;SDS011;24384;51.988;4.644;2023-02-28T02:04:07;7.20;;;2.83;;
38629;SDS011;24384;51.988;4.644;2023-02-28T02:06:40;5.47;;;2.40;;
38629;SDS011;24384;51.988;4.644;2023-02-28T02:09:09;4.80;;;2.53;;
38629;SDS011;24384;51.988;4.644;2023-02-28T02:11:35;4.55;;;2.00;;
38629;SDS011;24384;51.988;4.644;2023-02-28T02:24:58;7.07;;;2.40;;
38629;SDS011;24384;51.988;4.644;2023-02-28T02:38:50;9.43;;;3.25;;
38629;SDS011;24384;51.988;4.644;2023-02-28T02:44:11;10.20;;;2.22;;
38629;SDS011;24384;51.988;4.644;2023-02-28T02:46:47;8.55;;;2.45;;
38629;SDS011;24384;51.988;4.644;2023-02-28T02:49:33;4.20;;;2.25;;
38629;SDS011;24384;51.988;4.644;2023-02-28T02:52:02;6.38;;;2.83;;
38629;SDS011;24384;51.988;4.644;2023-02-28T02:54:37;4.60;;;2.65;;
38629;SDS011;24384;51.988;4.644;2023-02-28T02:57:07;3.63;;;2.00;;
38629;SDS011;24384;51.988;4.644;2023-02-28T02:59:36;4.75;;;2.55;;
38629;SDS011;24384;51.988;4.644;2023-02-28T03:02:05;4.25;;;1.88;;
38629;SDS011;24384;51.988;4.644;2023-02-28T03:04:43;4.65;;;2.25;;
38629;SDS011;24384;51.988;4.644;2023-02-28T03:07:13;4.82;;;2.40;;
38629;SDS011;24384;51.988;4.644;2023-02-28T03:09:38;4.38;;;2.58;;
38629;SDS011;24384;51.988;4.644;2023-02-28T03:12:04;3.65;;;2.35;;
38629;SDS011;24384;51.988;4.644;2023-02-28T03:25:20;4.55;;;2.10;;
38629;SDS011;24384;51.988;4.644;2023-02-28T03:30:57;4.50;;;2.00;;
38629;SDS011;24384;51.988;4.644;2023-02-28T03:33:49;3.47;;;1.98;;
38629;SDS011;24384;51.988;4.644;2023-02-28T03:36:20;9.50;;;3.80;;
38629;SDS011;24384;51.988;4.644;2023-02-28T03:39:04;4.18;;;2.15;;
38629;SDS011;24384;51.988;4.644;2023-02-28T03:42:05;13.02;;;3.80;;
38629;SDS011;24384;51.988;4.644;2023-02-28T03:44:28;6.43;;;2.22;;
38629;SDS011;24384;51.988;4.644;2023-02-28T03:47:13;8.20;;;2.58;;
38629;SDS011;24384;51.988;4.644;2023-02-28T03:50:03;7.50;;;2.67;;
38629;SDS011;24384;51.988;4.644;2023-02-28T03:52:31;4.10;;;2.20;;
38629;SDS011;24384;51.988;4.644;2023-02-28T03:55:03;8.82;;;3.53;;
38629;SDS011;24384;51.988;4.644;2023-02-28T03:57:49;9.75;;;2.78;;
38629;SDS011;24384;51.988;4.644;2023-02-28T04:00:27;7.18;;;2.72;;
38629;SDS011;24384;51.988;4.644;2023-02-28T04:02:56;8.88;;;3.15;;
38629;SDS011;24384;51.988;4.644;2023-02-28T04:05:22;6.93;;;2.65;;
38629;SDS011;24384;51.988;4.644;2023-02-28T04:07:48;3.80;;;2.20;;
38629;SDS011;24384;51.988;4.644;2023-02-28T04:10:14;5.68;;;2.38;;
38629;SDS011;24384;51.988;4.644;2023-02-28T04:12:40;6.85;;;2.97;;
38629;SDS011;24384;51.988;4.644;2023-02-28T04:15:06;5.28;;;2.97;;
38629;SDS011;24384;51.988;4.644;2023-02-28T04:17:32;6.75;;;2.75;;
38629;SDS011;24384;51.988;4.644;2023-02-28T04:19:57;12.07;;;3.20;;
38629;SDS011;24384;51.988;4.644;2023-02-28T04:22:22;7.00;;;3.30;;
38629;SDS011;24384;51.988;4.644;2023-02-28T04:24:51;5.63;;;3.28;;
38629;SDS011;24384;51.988;4.644;2023-02-28T04:27:16;6.20;;;2.97;;
38629;SDS011;24384;51.988;4.644;2023-02-28T04:29:41;4.97;;;2.47;;
38629;SDS011;24384;51.988;4.644;2023-02-28T04:32:09;5.50;;;2.92;;
38629;SDS011;24384;51.988;4.644;2023-02-28T04:34:34;7.80;;;3.10;;
38629;SDS011;24384;51.988;4.644;2023-02-28T04:37:00;6.82;;;3.17;;
38629;SDS011;24384;51.988;4.644;2023-02-28T04:39:25;7.53;;;2.70;;
38629;SDS011;24384;51.988;4.644;2023-02-28T04:41:51;7.88;;;3.72;;
38629;SDS011;24384;51.988;4.644;2023-02-28T04:44:16;9.38;;;3.70;;
38629;SDS011;24384;51.988;4.644;2023-02-28T04:46:43;7.20;;;3.40;;
38629;SDS011;24384;51.988;4.644;2023-02-28T04:49:12;8.23;;;3.58;;
38629;SDS011;24384;51.988;4.644;2023-02-28T04:51:37;5.72;;;3.47;;
38629;SDS011;24384;51.988;4.644;2023-02-28T04:54:03;11.45;;;4.07;;
38629;SDS011;24384;51.988;4.644;2023-02-28T04:56:29;7.97;;;3.65;;
38629;SDS011;24384;51.988;4.644;2023-02-28T04:58:54;5.00;;;3.22;;
38629;SDS011;24384;51.988;4.644;2023-02-28T05:01:21;6.55;;;3.70;;
38629;SDS011;24384;51.988;4.644;2023-02-28T05:03:49;15.85;;;4.20;;
38629;SDS011;24384;51.988;4.644;2023-02-28T05:06:15;7.35;;;4.43;;
38629;SDS011;24384;51.988;4.644;2023-02-28T05:08:41;6.00;;;3.65;;
38629;SDS011;24384;51.988;4.644;2023-02-28T05:11:15;7.57;;;4.30;;
38629;SDS011;24384;51.988;4.644;2023-02-28T05:13:41;8.52;;;4.72;;
38629;SDS011;24384;51.988;4.644;2023-02-28T05:16:06;8.30;;;3.58;;
38629;SDS011;24384;51.988;4.644;2023-02-28T05:18:32;7.53;;;4.60;;
38629;SDS011;24384;51.988;4.644;2023-02-28T05:20:57;14.13;;;5.07;;
38629;SDS011;24384;51.988;4.644;2023-02-28T05:23:22;7.45;;;4.43;;
38629;SDS011;24384;51.988;4.644;2023-02-28T05:25:48;10.27;;;4.47;;
38629;SDS011;24384;51.988;4.644;2023-02-28T05:28:13;6.47;;;4.47;;
38629;SDS011;24384;51.988;4.644;2023-02-28T05:30:39;8.77;;;4.50;;
38629;SDS011;24384;51.988;4.644;2023-02-28T05:33:04;10.07;;;5.50;;
38629;SDS011;24384;51.988;4.644;2023-02-28T05:35:30;7.30;;;4.88;;
38629;SDS011;24384;51.988;4.644;2023-02-28T05:37:55;14.02;;;4.82;;
38629;SDS011;24384;51.988;4.644;2023-02-28T05:40:20;7.38;;;4.95;;
38629;SDS011;24384;51.988;4.644;2023-02-28T05:42:45;8.50;;;4.47;;
38629;SDS011;24384;51.988;4.644;2023-02-28T05:45:11;6.43;;;4.20;;
38629;SDS011;24384;51.988;4.644;2023-02-28T05:47:36;9.57;;;4.32;;
38629;SDS011;24384;51.988;4.644;2023-02-28T05:50:02;10.40;;;4.47;;
38629;SDS011;24384;51.988;4.644;2023-02-28T05:52:28;11.50;;;5.10;;
38629;SDS011;24384;51.988;4.644;2023-02-28T05:54:55;8.70;;;4.60;;
38629;SDS011;24384;51.988;4.644;2023-02-28T05:57:20;6.45;;;4.00;;
38629;SDS011;24384;51.988;4.644;2023-02-28T05:59:46;8.82;;;4.40;;
38629;SDS011;24384;51.988;4.644;2023-02-28T06:02:12;6.60;;;4.13;;
38629;SDS011;24384;51.988;4.644;2023-02-28T06:04:39;7.50;;;4.13;;
38629;SDS011;24384;51.988;4.644;2023-02-28T06:07:05;6.00;;;3.80;;
38629;SDS011;24384;51.988;4.644;2023-02-28T06:09:32;11.50;;;3.83;;
38629;SDS011;24384;51.988;4.644;2023-02-28T06:11:58;8.38;;;3.78;;
38629;SDS011;24384;51.988;4.644;2023-02-28T06:14:24;8.85;;;2.88;;
38629;SDS011;24384;51.988;4.644;2023-02-28T06:16:52;7.20;;;3.30;;
38629;SDS011;24384;51.988;4.644;2023-02-28T06:19:17;5.20;;;3.10;;
38629;SDS011;24384;51.988;4.644;2023-02-28T06:21:42;5.53;;;2.90;;
38629;SDS011;24384;51.988;4.644;2023-02-28T06:24:08;5.35;;;2.67;;
38629;SDS011;24384;51.988;4.644;2023-02-28T06:26:33;6.35;;;2.67;;
38629;SDS011;24384;51.988;4.644;2023-02-28T06:29:00;6.93;;;2.90;;
38629;SDS011;24384;51.988;4.644;2023-02-28T06:31:25;5.15;;;3.28;;
38629;SDS011;24384;51.988;4.644;2023-02-28T06:33:51;8.07;;;2.78;;
38629;SDS011;24384;51.988;4.644;2023-02-28T06:36:17;4.45;;;3.05;;
38629;SDS011;24384;51.988;4.644;2023-02-28T06:38:43;4.78;;;2.90;;
38629;SDS011;24384;51.988;4.644;2023-02-28T06:41:09;5.90;;;3.10;;
38629;SDS011;24384;51.988;4.644;2023-02-28T06:43:36;7.15;;;3.00;;
38629;SDS011;24384;51.988;4.644;2023-02-28T06:46:05;12.85;;;3.75;;
38629;SDS011;24384;51.988;4.644;2023-02-28T06:48:32;5.40;;;3.00;;
38629;SDS011;24384;51.988;4.644;2023-02-28T06:51:02;5.18;;;2.30;;
38629;SDS011;24384;51.988;4.644;2023-02-28T06:53:28;5.20;;;3.45;;
38629;SDS011;24384;51.988;4.644;2023-02-28T06:55:54;4.88;;;3.05;;
38629;SDS011;24384;51.988;4.644;2023-02-28T06:58:19;5.38;;;3.00;;
38629;SDS011;24384;51.988;4.644;2023-02-28T07:00:49;5.72;;;3.47;;
38629;SDS011;24384;51.988;4.644;2023-02-28T07:03:16;5.78;;;3.40;;
38629;SDS011;24384;51.988;4.644;2023-02-28T07:05:42;6.18;;;3.47;;
38629;SDS011;24384;51.988;4.644;2023-02-28T07:08:07;5.57;;;3.60;;
38629;SDS011;24384;51.988;4.644;2023-02-28T07:10:33;5.90;;;3.22;;
38629;SDS011;24384;51.988;4.644;2023-02-28T07:12:58;5.13;;;3.03;;
38629;SDS011;24384;51.988;4.644;2023-02-28T07:15:24;7.15;;;2.80;;
38629;SDS011;24384;51.988;4.644;2023-02-28T07:17:51;5.63;;;3.67;;
38629;SDS011;24384;51.988;4.644;2023-02-28T07:20:16;7.97;;;3.42;;
38629;SDS011;24384;51.988;4.644;2023-02-28T07:22:42;6.70;;;3.63;;
38629;SDS011;24384;51.988;4.644;2023-02-28T07:25:07;7.80;;;3.47;;
38629;SDS011;24384;51.988;4.644;2023-02-28T07:27:33;5.95;;;3.58;;
38629;SDS011;24384;51.988;4.644;2023-02-28T07:29:59;9.27;;;3.58;;
38629;SDS011;24384;51.988;4.644;2023-02-28T07:32:26;8.20;;;3.38;;
38629;SDS011;24384;51.988;4.644;2023-02-28T07:34:51;11.70;;;3.60;;
38629;SDS011;24384;51.988;4.644;2023-02-28T07:37:17;8.00;;;4.05;;
38629;SDS011;24384;51.988;4.644;2023-02-28T07:39:42;9.18;;;4.05;;
38629;SDS011;24384;51.988;4.644;2023-02-28T07:42:08;7.53;;;3.90;;
38629;SDS011;24384;51.988;4.644;2023-02-28T07:44:36;6.60;;;3.85;;
38629;SDS011;24384;51.988;4.644;2023-02-28T07:47:07;7.28;;;3.47;;
38629;SDS011;24384;51.988;4.644;2023-02-28T07:49:36;8.15;;;3.88;;
38629;SDS011;24384;51.988;4.644;2023-02-28T07:52:06;5.82;;;3.88;;
38629;SDS011;24384;51.988;4.644;2023-02-28T07:54:32;7.82;;;4.18;;
38629;SDS011;24384;51.988;4.644;2023-02-28T07:56:58;5.65;;;3.35;;
38629;SDS011;24384;51.988;4.644;2023-02-28T07:59:23;9.77;;;4.20;;
38629;SDS011;24384;51.988;4.644;2023-02-28T08:01:49;6.70;;;3.08;;
38629;SDS011;24384;51.988;4.644;2023-02-28T08:04:15;5.65;;;3.88;;
38629;SDS011;24384;51.988;4.644;2023-02-28T08:06:41;6.90;;;4.07;;
38629;SDS011;24384;51.988;4.644;2023-02-28T08:09:06;9.88;;;4.22;;
38629;SDS011;24384;51.988;4.644;2023-02-28T08:11:32;7.38;;;3.85;;
38629;SDS011;24384;51.988;4.644;2023-02-28T08:13:57;13.45;;;9.82;;
38629;SDS011;24384;51.988;4.644;2023-02-28T08:16:23;6.03;;;4.78;;
38629;SDS011;24384;51.988;4.644;2023-02-28T08:18:49;6.55;;;4.25;;
38629;SDS011;24384;51.988;4.644;2023-02-28T08:21:15;9.52;;;4.25;;
38629;SDS011;24384;51.988;4.644;2023-02-28T08:23:40;7.55;;;3.78;;
38629;SDS011;24384;51.988;4.644;2023-02-28T08:26:06;7.65;;;4.70;;
38629;SDS011;24384;51.988;4.644;2023-02-28T08:28:31;7.10;;;4.10;;
38629;SDS011;24384;51.988;4.644;2023-02-28T08:30:57;6.65;;;4.13;;
38629;SDS011;24384;51.988;4.644;2023-02-28T08:33:23;7.13;;;4.60;;
38629;SDS011;24384;51.988;4.644;2023-02-28T08:35:51;10.20;;;4.38;;
38629;SDS011;24384;51.988;4.644;2023-02-28T08:38:17;7.80;;;4.70;;
38629;SDS011;24384;51.988;4.644;2023-02-28T08:40:42;7.78;;;5.50;;
38629;SDS011;24384;51.988;4.644;2023-02-28T08:43:08;11.10;;;7.32;;
38629;SDS011;24384;51.988;4.644;2023-02-28T08:45:33;7.30;;;4.65;;
38629;SDS011;24384;51.988;4.644;2023-02-28T08:47:58;7.70;;;5.80;;
38629;SDS011;24384;51.988;4.644;2023-02-28T08:50:23;8.07;;;5.22;;
38629;SDS011;24384;51.988;4.644;2023-02-28T08:52:49;8.35;;;5.18;;
38629;SDS011;24384;51.988;4.644;2023-02-28T08:55:14;9.32;;;5.28;;
38629;SDS011;24384;51.988;4.644;2023-02-28T08:57:41;10.40;;;5.70;;
38629;SDS011;24384;51.988;4.644;2023-02-28T09:00:07;10.98;;;5.22;;
38629;SDS011;24384;51.988;4.644;2023-02-28T09:02:33;10.50;;;4.85;;
38629;SDS011;24384;51.988;4.644;2023-02-28T09:04:58;7.85;;;4.40;;
38629;SDS011;24384;51.988;4.644;2023-02-28T09:07:24;9.57;;;4.30;;
38629;SDS011;24384;51.988;4.644;2023-02-28T09:09:49;9.18;;;5.15;;
38629;SDS011;24384;51.988;4.644;2023-02-28T09:12:23;7.45;;;4.60;;
38629;SDS011;24384;51.988;4.644;2023-02-28T09:14:50;6.70;;;4.22;;
38629;SDS011;24384;51.988;4.644;2023-02-28T09:17:16;7.35;;;4.85;;
38629;SDS011;24384;51.988;4.644;2023-02-28T09:19:41;8.93;;;4.78;;
38629;SDS011;24384;51.988;4.644;2023-02-28T09:22:07;9.13;;;4.32;;
38629;SDS011;24384;51.988;4.644;2023-02-28T09:24:33;9.02;;;4.10;;
38629;SDS011;24384;51.988;4.644;2023-02-28T09:26:58;7.07;;;4.10;;
38629;SDS011;24384;51.988;4.644;2023-02-28T09:29:23;8.98;;;4.38;;
38629;SDS011;24384;51.988;4.644;2023-02-28T09:31:49;6.05;;;3.75;;
38629;SDS011;24384;51.988;4.644;2023-02-28T09:34:14;7.65;;;3.67;;
38629;SDS011;24384;51.988;4.644;2023-02-28T09:36:42;11.27;;;4.72;;
38629;SDS011;24384;51.988;4.644;2023-02-28T09:39:07;11.05;;;4.70;;
38629;SDS011;24384;51.988;4.644;2023-02-28T09:41:41;9.00;;;3.63;;
38629;SDS011;24384;51.988;4.644;2023-02-28T09:47:08;6.25;;;3.60;;
38629;SDS011;24384;51.988;4.644;2023-02-28T09:49:43;10.63;;;4.10;;
38629;SDS011;24384;51.988;4.644;2023-02-28T09:52:13;6.50;;;3.33;;
38629;SDS011;24384;51.988;4.644;2023-02-28T09:54:44;6.95;;;3.40;;
38629;SDS011;24384;51.988;4.644;2023-02-28T10:00:20;6.50;;;3.88;;
38629;SDS011;24384;51.988;4.644;2023-02-28T10:05:43;5.68;;;3.50;;
38629;SDS011;24384;51.988;4.644;2023-02-28T10:08:19;9.45;;;3.28;;
38629;SDS011;24384;51.988;4.644;2023-02-28T10:10:54;6.65;;;3.60;;
38629;SDS011;24384;51.988;4.644;2023-02-28T10:13:24;8.10;;;3.47;;
38629;SDS011;24384;51.988;4.644;2023-02-28T10:15:58;5.43;;;2.88;;
38629;SDS011;24384;51.988;4.644;2023-02-28T10:18:27;6.43;;;3.25;;
38629;SDS011;24384;51.988;4.644;2023-02-28T10:20:59;7.10;;;3.40;;
38629;SDS011;24384;51.988;4.644;2023-02-28T10:23:27;4.57;;;3.08;;
38629;SDS011;24384;51.988;4.644;2023-02-28T10:26:00;6.90;;;3.35;;
38629;SDS011;24384;51.988;4.644;2023-02-28T10:28:32;5.82;;;3.35;;
38629;SDS011;24384;51.988;4.644;2023-02-28T10:30:57;5.53;;;3.08;;
38629;SDS011;24384;51.988;4.644;2023-02-28T10:33:25;6.60;;;3.42;;
38629;SDS011;24384;51.988;4.644;2023-02-28T10:36:00;3.55;;;2.42;;
38629;SDS011;24384;51.988;4.644;2023-02-28T10:38:34;3.35;;;2.60;;
38629;SDS011;24384;51.988;4.644;2023-02-28T10:43:28;5.03;;;2.67;;
38629;SDS011;24384;51.988;4.644;2023-02-28T10:45:56;7.45;;;2.60;;
38629;SDS011;24384;51.988;4.644;2023-02-28T10:50:58;5.63;;;2.42;;
38629;SDS011;24384;51.988;4.644;2023-02-28T10:56:16;3.35;;;1.92;;
38629;SDS011;24384;51.988;4.644;2023-02-28T10:58:51;2.95;;;1.85;;
38629;SDS011;24384;51.988;4.644;2023-02-28T11:03:56;2.67;;;1.60;;
38629;SDS011;24384;51.988;4.644;2023-02-28T11:06:23;1.88;;;1.40;;
38629;SDS011;24384;51.988;4.644;2023-02-28T11:08:54;2.92;;;1.67;;
38629;SDS011;24384;51.988;4.644;2023-02-28T11:11:22;4.53;;;1.92;;
38629;SDS011;24384;51.988;4.644;2023-02-28T11:13:52;4.22;;;1.48;;
38629;SDS011;24384;51.988;4.644;2023-02-28T11:16:20;2.80;;;1.40;;
38629;SDS011;24384;51.988;4.644;2023-02-28T11:19:05;3.47;;;1.30;;
38629;SDS011;24384;51.988;4.644;2023-02-28T11:21:45;4.55;;;1.60;;
38629;SDS011;24384;51.988;4.644;2023-02-28T11:25:01;1.73;;;1.25;;
38629;SDS011;24384;51.988;4.644;2023-02-28T11:27:24;4.47;;;1.63;;
38629;SDS011;24384;51.988;4.644;2023-02-28T11:29:59;3.55;;;1.60;;
38629;SDS011;24384;51.988;4.644;2023-02-28T11:32:26;4.30;;;1.80;;
38629;SDS011;24384;51.988;4.644;2023-02-28T11:35:14;2.72;;;1.60;;
38629;SDS011;24384;51.988;4.644;2023-02-28T11:37:47;2.88;;;1.52;;
38629;SDS011;24384;51.988;4.644;2023-02-28T11:40:14;2.47;;;1.50;;
38629;SDS011;24384;51.988;4.644;2023-02-28T11:45:55;2.55;;;1.80;;
38629;SDS011;24384;51.988;4.644;2023-02-28T11:48:32;3.65;;;2.60;;
38629;SDS011;24384;51.988;4.644;2023-02-28T11:51:08;4.97;;;2.00;;
38629;SDS011;24384;51.988;4.644;2023-02-28T11:56:47;2.67;;;1.65;;
38629;SDS011;24384;51.988;4.644;2023-02-28T12:16:45;2.60;;;1.42;;
38629;SDS011;24384;51.988;4.644;2023-02-28T12:22:23;2.25;;;1.42;;
38629;SDS011;24384;51.988;4.644;2023-02-28T12:27:40;4.82;;;1.58;;
38629;SDS011;24384;51.988;4.644;2023-02-28T12:30:21;3.53;;;1.38;;
38629;SDS011;24384;51.988;4.644;2023-02-28T12:33:01;4.72;;;1.90;;
38629;SDS011;24384;51.988;4.644;2023-02-28T12:35:37;6.55;;;1.60;;
38629;SDS011;24384;51.988;4.644;2023-02-28T12:38:21;2.33;;;1.40;;
38629;SDS011;24384;51.988;4.644;2023-02-28T12:40:52;3.83;;;2.17;;
38629;SDS011;24384;51.988;4.644;2023-02-28T12:43:22;2.75;;;1.55;;
38629;SDS011;24384;51.988;4.644;2023-02-28T12:45:57;4.70;;;1.65;;
38629;SDS011;24384;51.988;4.644;2023-02-28T12:48:29;3.00;;;1.60;;
38629;SDS011;24384;51.988;4.644;2023-02-28T12:51:02;3.00;;;1.85;;
38629;SDS011;24384;51.988;4.644;2023-02-28T12:56:19;3.17;;;1.52;;
38629;SDS011;24384;51.988;4.644;2023-02-28T12:58:58;3.35;;;1.83;;
38629;SDS011;24384;51.988;4.644;2023-02-28T13:04:54;2.30;;;1.60;;
38629;SDS011;24384;51.988;4.644;2023-02-28T13:10:24;3.45;;;1.55;;
38629;SDS011;24384;51.988;4.644;2023-02-28T13:12:51;2.33;;;1.33;;
38629;SDS011;24384;51.988;4.644;2023-02-28T13:15:21;3.17;;;1.60;;
38629;SDS011;24384;51.988;4.644;2023-02-28T13:17:53;2.20;;;1.58;;
38629;SDS011;24384;51.988;4.644;2023-02-28T13:20:23;5.68;;;1.90;;
38629;SDS011;24384;51.988;4.644;2023-02-28T13:22:54;2.22;;;1.70;;
38629;SDS011;24384;51.988;4.644;2023-02-28T13:28:10;2.97;;;1.67;;
38629;SDS011;24384;51.988;4.644;2023-02-28T13:33:20;3.80;;;1.90;;
38629;SDS011;24384;51.988;4.644;2023-02-28T13:35:46;2.03;;;1.45;;
38629;SDS011;24384;51.988;4.644;2023-02-28T13:38:33;2.63;;;1.83;;
38629;SDS011;24384;51.988;4.644;2023-02-28T13:49:19;3.10;;;1.60;;
38629;SDS011;24384;51.988;4.644;2023-02-28T13:51:52;2.67;;;1.83;;
38629;SDS011;24384;51.988;4.644;2023-02-28T14:02:27;2.40;;;1.90;;
38629;SDS011;24384;51.988;4.644;2023-02-28T14:07:48;6.47;;;2.42;;
38629;SDS011;24384;51.988;4.644;2023-02-28T14:18:30;4.75;;;1.70;;
38629;SDS011;24384;51.988;4.644;2023-02-28T14:21:03;3.50;;;1.75;;
38629;SDS011;24384;51.988;4.644;2023-02-28T14:23:36;2.20;;;1.77;;
38629;SDS011;24384;51.988;4.644;2023-02-28T14:29:10;3.67;;;1.70;;
38629;SDS011;24384;51.988;4.644;2023-02-28T14:32:01;3.45;;;1.98;;
38629;SDS011;24384;51.988;4.644;2023-02-28T14:37:10;2.78;;;1.88;;
38629;SDS011;24384;51.988;4.644;2023-02-28T14:39:41;3.42;;;2.10;;
38629;SDS011;24384;51.988;4.644;2023-02-28T14:45:20;4.88;;;1.55;;
38629;SDS011;24384;51.988;4.644;2023-02-28T14:47:48;4.00;;;1.48;;
38629;SDS011;24384;51.988;4.644;2023-02-28T14:50:22;3.15;;;1.92;;
38629;SDS011;24384;51.988;4.644;2023-02-28T14:52:54;4.10;;;1.60;;
38629;SDS011;24384;51.988;4.644;2023-02-28T14:55:22;2.42;;;1.50;;
38629;SDS011;24384;51.988;4.644;2023-02-28T14:57:52;1.83;;;1.30;;
38629;SDS011;24384;51.988;4.644;2023-02-28T15:02:48;3.03;;;1.60;;
38629;SDS011;24384;51.988;4.644;2023-02-28T15:07:46;2.08;;;1.40;;
38629;SDS011;24384;51.988;4.644;2023-02-28T15:10:25;4.07;;;2.10;;
38629;SDS011;24384;51.988;4.644;2023-02-28T15:13:05;2.67;;;1.80;;
38629;SDS011;24384;51.988;4.644;2023-02-28T15:15:43;3.08;;;1.48;;
38629;SDS011;24384;51.988;4.644;2023-02-28T15:20:44;2.28;;;1.85;;
38629;SDS011;24384;51.988;4.644;2023-02-28T15:23:11;3.08;;;1.63;;
38629;SDS011;24384;51.988;4.644;2023-02-28T15:25:37;2.97;;;1.48;;
38629;SDS011;24384;51.988;4.644;2023-02-28T15:28:04;2.22;;;1.60;;
38629;SDS011;24384;51.988;4.644;2023-02-28T15:30:31;2.97;;;2.10;;
38629;SDS011;24384;51.988;4.644;2023-02-28T15:33:05;2.67;;;1.45;;
38629;SDS011;24384;51.988;4.644;2023-02-28T15:35:33;2.72;;;1.80;;
38629;SDS011;24384;51.988;4.644;2023-02-28T15:40:50;3.75;;;1.52;;
38629;SDS011;24384;51.988;4.644;2023-02-28T15:43:23;1.92;;;1.50;;
38629;SDS011;24384;51.988;4.644;2023-02-28T15:45:51;2.70;;;1.65;;
38629;SDS011;24384;51.988;4.644;2023-02-28T15:54:04;5.25;;;1.65;;
38629;SDS011;24384;51.988;4.644;2023-02-28T15:56:33;2.38;;;1.85;;
38629;SDS011;24384;51.988;4.644;2023-02-28T15:59:07;3.75;;;1.80;;
38629;SDS011;24384;51.988;4.644;2023-02-28T16:01:39;6.95;;;2.28;;
38629;SDS011;24384;51.988;4.644;2023-02-28T16:04:18;3.40;;;2.20;;
38629;SDS011;24384;51.988;4.644;2023-02-28T16:06:44;4.35;;;1.98;;
38629;SDS011;24384;51.988;4.644;2023-02-28T16:09:12;4.93;;;2.38;;
38629;SDS011;24384;51.988;4.644;2023-02-28T16:11:48;3.85;;;2.33;;
38629;SDS011;24384;51.988;4.644;2023-02-28T16:14:16;4.22;;;2.30;;
38629;SDS011;24384;51.988;4.644;2023-02-28T16:16:49;5.63;;;2.20;;
38629;SDS011;24384;51.988;4.644;2023-02-28T16:19:16;2.70;;;2.08;;
38629;SDS011;24384;51.988;4.644;2023-02-28T16:21:42;4.88;;;2.42;;
38629;SDS011;24384;51.988;4.644;2023-02-28T16:24:08;3.92;;;2.97;;
38629;SDS011;24384;51.988;4.644;2023-02-28T16:26:34;5.28;;;2.45;;
38629;SDS011;24384;51.988;4.644;2023-02-28T16:29:00;3.50;;;2.42;;
38629;SDS011;24384;51.988;4.644;2023-02-28T16:31:27;5.13;;;2.60;;
38629;SDS011;24384;51.988;4.644;2023-02-28T16:33:52;3.38;;;2.38;;
38629;SDS011;24384;51.988;4.644;2023-02-28T16:36:19;2.67;;;2.40;;
38629;SDS011;24384;51.988;4.644;2023-02-28T16:38:46;11.82;;;3.00;;
38629;SDS011;24384;51.988;4.644;2023-02-28T16:41:12;4.88;;;2.65;;
38629;SDS011;24384;51.988;4.644;2023-02-28T16:43:45;3.38;;;2.55;;
38629;SDS011;24384;51.988;4.644;2023-02-28T16:46:13;5.30;;;2.58;;
38629;SDS011;24384;51.988;4.644;2023-02-28T16:48:38;3.67;;;2.45;;
38629;SDS011;24384;51.988;4.644;2023-02-28T16:51:05;6.40;;;2.67;;
38629;SDS011;24384;51.988;4.644;2023-02-28T16:53:33;4.05;;;2.40;;
38629;SDS011;24384;51.988;4.644;2023-02-28T16:55:58;5.32;;;2.45;;
38629;SDS011;24384;51.988;4.644;2023-02-28T16:58:26;6.03;;;3.15;;
38629;SDS011;24384;51.988;4.644;2023-02-28T17:00:52;3.65;;;2.50;;
38629;SDS011;24384;51.988;4.644;2023-02-28T17:03:25;10.25;;;2.45;;
38629;SDS011;24384;51.988;4.644;2023-02-28T17:05:51;4.20;;;3.00;;
38629;SDS011;24384;51.988;4.644;2023-02-28T17:08:17;6.15;;;3.00;;
38629;SDS011;24384;51.988;4.644;2023-02-28T17:10:42;6.65;;;2.78;;
38629;SDS011;24384;51.988;4.644;2023-02-28T17:13:08;6.22;;;3.38;;
38629;SDS011;24384;51.988;4.644;2023-02-28T17:15:34;4.95;;;3.17;;
38629;SDS011;24384;51.988;4.644;2023-02-28T17:18:00;8.10;;;3.10;;
38629;SDS011;24384;51.988;4.644;2023-02-28T17:20:25;4.78;;;2.97;;
38629;SDS011;24384;51.988;4.644;2023-02-28T17:22:51;5.30;;;2.70;;
38629;SDS011;24384;51.988;4.644;2023-02-28T17:25:17;7.75;;;3.10;;
38629;SDS011;24384;51.988;4.644;2023-02-28T17:27:42;7.80;;;3.17;;
38629;SDS011;24384;51.988;4.644;2023-02-28T17:30:18;5.15;;;3.40;;